sensor_id;sensor_type;location;lat;lon;timestamp;P1;durP1;ratioP1;P2;durP2;ratioP2
31990;SDS011;18508;49.386;8.370;2024-03-07T00:01:22;65.07;;;30.88;;
31990;SDS011;18508;49.386;8.370;2024-03-07T00:06:21;61.33;;;29.08;;
31990;SDS011;18508;49.386;8.370;2024-03-07T00:08:50;60.85;;;29.15;;
31990;SDS011;18508;49.386;8.370;2024-03-07T00:11:21;54.83;;;28.42;;
31990;SDS011;18508;49.386;8.370;2024-03-07T00:13:51;57.88;;;27.30;;
31990;SDS011;18508;49.386;8.370;2024-03-07T00:16:22;61.70;;;29.42;;
31990;SDS011;18508;49.386;8.370;2024-03-07T00:18:54;60.10;;;30.08;;
31990;SDS011;18508;49.386;8.370;2024-03-07T00:21:23;61.20;;;30.65;;
31990;SDS011;18508;49.386;8.370;2024-03-07T00:24:04;67.07;;;32.05;;
31990;SDS011;18508;49.386;8.370;2024-03-07T00:26:36;61.10;;;29.40;;
31990;SDS011;18508;49.386;8.370;2024-03-07T00:29:07;65.00;;;30.35;;
31990;SDS011;18508;49.386;8.370;2024-03-07T00:31:39;64.60;;;30.88;;
31990;SDS011;18508;49.386;8.370;2024-03-07T00:34:12;67.55;;;31.80;;
31990;SDS011;18508;49.386;8.370;2024-03-07T00:36:51;62.28;;;31.48;;
31990;SDS011;18508;49.386;8.370;2024-03-07T00:39:23;63.25;;;29.45;;
31990;SDS011;18508;49.386;8.370;2024-03-07T00:41:53;60.92;;;29.05;;
31990;SDS011;18508;49.386;8.370;2024-03-07T00:44:25;64.32;;;30.90;;
31990;SDS011;18508;49.386;8.370;2024-03-07T00:46:57;58.60;;;28.33;;
31990;SDS011;18508;49.386;8.370;2024-03-07T00:49:26;62.50;;;30.05;;
31990;SDS011;18508;49.386;8.370;2024-03-07T00:51:54;67.90;;;31.17;;
31990;SDS011;18508;49.386;8.370;2024-03-07T00:54:26;69.90;;;31.23;;
31990;SDS011;18508;49.386;8.370;2024-03-07T00:56:54;67.13;;;31.90;;
31990;SDS011;18508;49.386;8.370;2024-03-07T00:59:29;60.10;;;30.60;;
31990;SDS011;18508;49.386;8.370;2024-03-07T01:02:02;66.22;;;31.60;;
31990;SDS011;18508;49.386;8.370;2024-03-07T01:04:37;67.25;;;32.28;;
31990;SDS011;18508;49.386;8.370;2024-03-07T01:07:06;62.35;;;30.33;;
31990;SDS011;18508;49.386;8.370;2024-03-07T01:09:37;64.90;;;31.13;;
31990;SDS011;18508;49.386;8.370;2024-03-07T01:12:16;70.40;;;31.02;;
31990;SDS011;18508;49.386;8.370;2024-03-07T01:14:50;61.75;;;29.50;;
31990;SDS011;18508;49.386;8.370;2024-03-07T01:17:20;66.30;;;32.22;;
31990;SDS011;18508;49.386;8.370;2024-03-07T01:19:49;65.05;;;32.10;;
31990;SDS011;18508;49.386;8.370;2024-03-07T01:22:24;63.70;;;31.48;;
31990;SDS011;18508;49.386;8.370;2024-03-07T01:24:52;66.75;;;31.13;;
31990;SDS011;18508;49.386;8.370;2024-03-07T01:27:21;65.45;;;31.10;;
31990;SDS011;18508;49.386;8.370;2024-03-07T01:29:51;64.00;;;31.23;;
31990;SDS011;18508;49.386;8.370;2024-03-07T01:32:22;62.92;;;31.50;;
31990;SDS011;18508;49.386;8.370;2024-03-07T01:34:50;64.47;;;30.55;;
31990;SDS011;18508;49.386;8.370;2024-03-07T01:37:21;65.38;;;31.85;;
31990;SDS011;18508;49.386;8.370;2024-03-07T01:39:49;66.20;;;31.85;;
31990;SDS011;18508;49.386;8.370;2024-03-07T01:42:18;68.28;;;31.25;;
31990;SDS011;18508;49.386;8.370;2024-03-07T01:44:51;68.93;;;30.70;;
31990;SDS011;18508;49.386;8.370;2024-03-07T01:47:22;61.17;;;31.27;;
31990;SDS011;18508;49.386;8.370;2024-03-07T01:49:51;68.18;;;31.67;;
31990;SDS011;18508;49.386;8.370;2024-03-07T01:52:19;65.97;;;31.60;;
31990;SDS011;18508;49.386;8.370;2024-03-07T01:54:51;67.75;;;32.88;;
31990;SDS011;18508;49.386;8.370;2024-03-07T01:57:21;68.53;;;31.60;;
31990;SDS011;18508;49.386;8.370;2024-03-07T01:59:50;66.68;;;31.75;;
31990;SDS011;18508;49.386;8.370;2024-03-07T02:02:20;68.13;;;34.20;;
31990;SDS011;18508;49.386;8.370;2024-03-07T02:04:50;65.78;;;32.40;;
31990;SDS011;18508;49.386;8.370;2024-03-07T02:07:20;62.05;;;30.58;;
31990;SDS011;18508;49.386;8.370;2024-03-07T02:09:58;67.50;;;33.23;;
31990;SDS011;18508;49.386;8.370;2024-03-07T02:12:29;65.63;;;31.20;;
31990;SDS011;18508;49.386;8.370;2024-03-07T02:14:58;66.45;;;30.90;;
31990;SDS011;18508;49.386;8.370;2024-03-07T02:17:29;63.10;;;30.55;;
31990;SDS011;18508;49.386;8.370;2024-03-07T02:20:01;67.25;;;32.13;;
31990;SDS011;18508;49.386;8.370;2024-03-07T02:22:36;69.30;;;32.47;;
31990;SDS011;18508;49.386;8.370;2024-03-07T02:25:05;66.07;;;32.88;;
31990;SDS011;18508;49.386;8.370;2024-03-07T02:27:46;64.00;;;32.03;;
31990;SDS011;18508;49.386;8.370;2024-03-07T02:30:29;66.78;;;32.70;;
31990;SDS011;18508;49.386;8.370;2024-03-07T02:33:48;66.78;;;33.08;;
31990;SDS011;18508;49.386;8.370;2024-03-07T02:36:34;67.40;;;33.63;;
31990;SDS011;18508;49.386;8.370;2024-03-07T02:39:11;68.73;;;32.63;;
31990;SDS011;18508;49.386;8.370;2024-03-07T02:41:40;69.05;;;33.00;;
31990;SDS011;18508;49.386;8.370;2024-03-07T02:44:10;69.10;;;32.08;;
31990;SDS011;18508;49.386;8.370;2024-03-07T02:46:41;66.10;;;33.10;;
31990;SDS011;18508;49.386;8.370;2024-03-07T02:49:09;78.03;;;34.45;;
31990;SDS011;18508;49.386;8.370;2024-03-07T02:51:41;73.53;;;34.45;;
31990;SDS011;18508;49.386;8.370;2024-03-07T02:54:11;72.78;;;34.42;;
31990;SDS011;18508;49.386;8.370;2024-03-07T02:56:39;72.32;;;33.60;;
31990;SDS011;18508;49.386;8.370;2024-03-07T02:59:11;71.53;;;35.00;;
31990;SDS011;18508;49.386;8.370;2024-03-07T03:01:40;63.92;;;31.05;;
31990;SDS011;18508;49.386;8.370;2024-03-07T03:04:08;64.57;;;32.58;;
31990;SDS011;18508;49.386;8.370;2024-03-07T03:06:37;68.50;;;33.67;;
31990;SDS011;18508;49.386;8.370;2024-03-07T03:09:05;68.90;;;33.95;;
31990;SDS011;18508;49.386;8.370;2024-03-07T03:11:39;72.20;;;34.63;;
31990;SDS011;18508;49.386;8.370;2024-03-07T03:14:07;75.28;;;36.35;;
31990;SDS011;18508;49.386;8.370;2024-03-07T03:16:38;70.05;;;34.40;;
31990;SDS011;18508;49.386;8.370;2024-03-07T03:19:14;73.13;;;34.65;;
31990;SDS011;18508;49.386;8.370;2024-03-07T03:21:44;70.25;;;34.25;;
31990;SDS011;18508;49.386;8.370;2024-03-07T03:24:18;74.82;;;34.85;;
31990;SDS011;18508;49.386;8.370;2024-03-07T03:26:54;74.63;;;34.20;;
31990;SDS011;18508;49.386;8.370;2024-03-07T03:29:24;79.90;;;35.22;;
31990;SDS011;18508;49.386;8.370;2024-03-07T03:31:55;75.53;;;35.80;;
31990;SDS011;18508;49.386;8.370;2024-03-07T03:34:23;68.75;;;32.30;;
31990;SDS011;18508;49.386;8.370;2024-03-07T03:36:53;75.53;;;36.22;;
31990;SDS011;18508;49.386;8.370;2024-03-07T03:39:22;73.93;;;34.13;;
31990;SDS011;18508;49.386;8.370;2024-03-07T03:41:52;78.75;;;34.13;;
31990;SDS011;18508;49.386;8.370;2024-03-07T03:44:21;77.40;;;34.97;;
31990;SDS011;18508;49.386;8.370;2024-03-07T03:46:50;74.72;;;33.65;;
31990;SDS011;18508;49.386;8.370;2024-03-07T03:49:19;78.50;;;34.30;;
31990;SDS011;18508;49.386;8.370;2024-03-07T03:51:48;76.78;;;36.72;;
31990;SDS011;18508;49.386;8.370;2024-03-07T03:54:21;85.38;;;36.95;;
31990;SDS011;18508;49.386;8.370;2024-03-07T03:56:53;77.40;;;35.00;;
31990;SDS011;18508;49.386;8.370;2024-03-07T03:59:27;82.75;;;35.00;;
31990;SDS011;18508;49.386;8.370;2024-03-07T04:01:56;80.63;;;37.13;;
31990;SDS011;18508;49.386;8.370;2024-03-07T04:04:26;89.05;;;38.88;;
31990;SDS011;18508;49.386;8.370;2024-03-07T04:07:00;87.32;;;37.55;;
31990;SDS011;18508;49.386;8.370;2024-03-07T04:09:30;81.78;;;37.55;;
31990;SDS011;18508;49.386;8.370;2024-03-07T04:14:39;88.63;;;38.17;;
31990;SDS011;18508;49.386;8.370;2024-03-07T04:17:11;92.13;;;38.97;;
31990;SDS011;18508;49.386;8.370;2024-03-07T04:19:42;93.95;;;38.10;;
31990;SDS011;18508;49.386;8.370;2024-03-07T04:22:14;87.53;;;39.30;;
31990;SDS011;18508;49.386;8.370;2024-03-07T04:24:47;94.55;;;41.10;;
31990;SDS011;18508;49.386;8.370;2024-03-07T04:27:22;89.68;;;39.78;;
31990;SDS011;18508;49.386;8.370;2024-03-07T04:29:53;84.55;;;36.97;;
31990;SDS011;18508;49.386;8.370;2024-03-07T04:32:22;86.57;;;37.75;;
31990;SDS011;18508;49.386;8.370;2024-03-07T04:34:53;92.05;;;40.40;;
31990;SDS011;18508;49.386;8.370;2024-03-07T04:37:28;95.25;;;38.30;;
31990;SDS011;18508;49.386;8.370;2024-03-07T04:42:46;83.45;;;36.63;;
31990;SDS011;18508;49.386;8.370;2024-03-07T04:45:18;93.82;;;38.55;;
31990;SDS011;18508;49.386;8.370;2024-03-07T04:47:55;83.50;;;37.10;;
31990;SDS011;18508;49.386;8.370;2024-03-07T04:50:25;83.30;;;36.22;;
31990;SDS011;18508;49.386;8.370;2024-03-07T04:52:54;84.55;;;37.78;;
31990;SDS011;18508;49.386;8.370;2024-03-07T04:55:24;80.35;;;34.30;;
31990;SDS011;18508;49.386;8.370;2024-03-07T04:57:56;90.97;;;38.47;;
31990;SDS011;18508;49.386;8.370;2024-03-07T05:00:28;82.93;;;36.08;;
31990;SDS011;18508;49.386;8.370;2024-03-07T05:03:02;83.47;;;37.72;;
31990;SDS011;18508;49.386;8.370;2024-03-07T05:05:35;80.18;;;34.75;;
31990;SDS011;18508;49.386;8.370;2024-03-07T05:08:08;77.03;;;34.20;;
31990;SDS011;18508;49.386;8.370;2024-03-07T05:10:37;85.80;;;35.53;;
31990;SDS011;18508;49.386;8.370;2024-03-07T05:13:09;79.45;;;34.88;;
31990;SDS011;18508;49.386;8.370;2024-03-07T05:15:40;86.90;;;35.67;;
31990;SDS011;18508;49.386;8.370;2024-03-07T05:18:09;84.55;;;37.95;;
31990;SDS011;18508;49.386;8.370;2024-03-07T05:20:47;82.22;;;34.47;;
31990;SDS011;18508;49.386;8.370;2024-03-07T05:23:18;107.45;;;50.60;;
31990;SDS011;18508;49.386;8.370;2024-03-07T05:25:49;108.82;;;46.03;;
31990;SDS011;18508;49.386;8.370;2024-03-07T05:28:21;89.55;;;42.22;;
31990;SDS011;18508;49.386;8.370;2024-03-07T05:30:52;84.18;;;37.50;;
31990;SDS011;18508;49.386;8.370;2024-03-07T05:33:21;75.82;;;34.65;;
31990;SDS011;18508;49.386;8.370;2024-03-07T05:35:50;74.72;;;32.92;;
31990;SDS011;18508;49.386;8.370;2024-03-07T05:38:40;78.28;;;33.63;;
31990;SDS011;18508;49.386;8.370;2024-03-07T05:41:11;85.05;;;33.33;;
31990;SDS011;18508;49.386;8.370;2024-03-07T05:43:41;75.13;;;32.72;;
31990;SDS011;18508;49.386;8.370;2024-03-07T05:46:13;71.00;;;32.10;;
31990;SDS011;18508;49.386;8.370;2024-03-07T05:48:44;77.47;;;31.55;;
31990;SDS011;18508;49.386;8.370;2024-03-07T05:51:21;71.38;;;31.80;;
31990;SDS011;18508;49.386;8.370;2024-03-07T05:53:50;63.97;;;30.58;;
31990;SDS011;18508;49.386;8.370;2024-03-07T05:56:23;72.90;;;31.98;;
31990;SDS011;18508;49.386;8.370;2024-03-07T05:58:57;74.13;;;34.42;;
31990;SDS011;18508;49.386;8.370;2024-03-07T06:01:28;74.60;;;32.38;;
31990;SDS011;18508;49.386;8.370;2024-03-07T06:04:11;77.63;;;33.67;;
31990;SDS011;18508;49.386;8.370;2024-03-07T06:06:46;76.47;;;33.80;;
31990;SDS011;18508;49.386;8.370;2024-03-07T06:09:20;71.70;;;33.30;;
31990;SDS011;18508;49.386;8.370;2024-03-07T06:11:53;77.85;;;32.90;;
31990;SDS011;18508;49.386;8.370;2024-03-07T06:14:48;78.57;;;33.15;;
31990;SDS011;18508;49.386;8.370;2024-03-07T06:17:19;78.60;;;33.45;;
31990;SDS011;18508;49.386;8.370;2024-03-07T06:20:04;76.53;;;33.03;;
31990;SDS011;18508;49.386;8.370;2024-03-07T06:23:10;72.10;;;30.67;;
31990;SDS011;18508;49.386;8.370;2024-03-07T06:25:44;72.43;;;31.50;;
31990;SDS011;18508;49.386;8.370;2024-03-07T06:28:25;69.05;;;29.98;;
31990;SDS011;18508;49.386;8.370;2024-03-07T06:31:08;69.10;;;29.73;;
31990;SDS011;18508;49.386;8.370;2024-03-07T06:33:44;66.00;;;30.13;;
31990;SDS011;18508;49.386;8.370;2024-03-07T06:36:18;67.90;;;29.83;;
31990;SDS011;18508;49.386;8.370;2024-03-07T06:38:52;67.70;;;30.85;;
31990;SDS011;18508;49.386;8.370;2024-03-07T06:41:35;66.50;;;29.42;;
31990;SDS011;18508;49.386;8.370;2024-03-07T06:44:13;67.70;;;32.88;;
31990;SDS011;18508;49.386;8.370;2024-03-07T06:46:53;67.07;;;30.63;;
31990;SDS011;18508;49.386;8.370;2024-03-07T06:49:37;70.50;;;31.30;;
31990;SDS011;18508;49.386;8.370;2024-03-07T06:52:11;66.22;;;29.08;;
31990;SDS011;18508;49.386;8.370;2024-03-07T06:54:56;67.10;;;31.40;;
31990;SDS011;18508;49.386;8.370;2024-03-07T06:57:31;71.45;;;30.98;;
31990;SDS011;18508;49.386;8.370;2024-03-07T07:00:08;62.92;;;28.90;;
31990;SDS011;18508;49.386;8.370;2024-03-07T07:02:42;62.65;;;28.73;;
31990;SDS011;18508;49.386;8.370;2024-03-07T07:05:25;66.18;;;29.27;;
31990;SDS011;18508;49.386;8.370;2024-03-07T07:08:21;61.67;;;27.70;;
31990;SDS011;18508;49.386;8.370;2024-03-07T07:10:54;65.00;;;29.35;;
31990;SDS011;18508;49.386;8.370;2024-03-07T07:13:29;59.65;;;28.33;;
31990;SDS011;18508;49.386;8.370;2024-03-07T07:16:02;57.47;;;26.20;;
31990;SDS011;18508;49.386;8.370;2024-03-07T07:18:42;64.70;;;29.67;;
31990;SDS011;18508;49.386;8.370;2024-03-07T07:21:17;68.03;;;28.88;;
31990;SDS011;18508;49.386;8.370;2024-03-07T07:23:52;64.82;;;29.95;;
31990;SDS011;18508;49.386;8.370;2024-03-07T07:26:39;60.05;;;26.58;;
31990;SDS011;18508;49.386;8.370;2024-03-07T07:29:22;54.22;;;26.60;;
31990;SDS011;18508;49.386;8.370;2024-03-07T07:31:58;56.03;;;27.20;;
31990;SDS011;18508;49.386;8.370;2024-03-07T07:34:31;59.50;;;28.00;;
31990;SDS011;18508;49.386;8.370;2024-03-07T07:37:06;60.05;;;27.40;;
31990;SDS011;18508;49.386;8.370;2024-03-07T07:39:42;55.40;;;26.83;;
31990;SDS011;18508;49.386;8.370;2024-03-07T07:42:22;64.57;;;28.98;;
31990;SDS011;18508;49.386;8.370;2024-03-07T07:44:53;53.53;;;26.65;;
31990;SDS011;18508;49.386;8.370;2024-03-07T07:47:41;52.35;;;27.60;;
31990;SDS011;18508;49.386;8.370;2024-03-07T07:50:14;49.33;;;24.98;;
31990;SDS011;18508;49.386;8.370;2024-03-07T07:52:52;56.45;;;27.17;;
31990;SDS011;18508;49.386;8.370;2024-03-07T07:55:29;56.00;;;27.15;;
31990;SDS011;18508;49.386;8.370;2024-03-07T07:58:01;49.00;;;25.77;;
31990;SDS011;18508;49.386;8.370;2024-03-07T08:00:32;56.75;;;27.17;;
31990;SDS011;18508;49.386;8.370;2024-03-07T08:03:14;50.03;;;24.15;;
31990;SDS011;18508;49.386;8.370;2024-03-07T08:05:50;47.35;;;24.77;;
31990;SDS011;18508;49.386;8.370;2024-03-07T08:08:25;50.17;;;25.73;;
31990;SDS011;18508;49.386;8.370;2024-03-07T08:10:59;41.17;;;22.33;;
31990;SDS011;18508;49.386;8.370;2024-03-07T08:13:30;44.10;;;22.20;;
31990;SDS011;18508;49.386;8.370;2024-03-07T08:16:06;41.60;;;21.92;;
31990;SDS011;18508;49.386;8.370;2024-03-07T08:19:05;42.70;;;22.70;;
31990;SDS011;18508;49.386;8.370;2024-03-07T08:24:48;37.28;;;21.02;;
31990;SDS011;18508;49.386;8.370;2024-03-07T08:27:33;39.17;;;21.00;;
31990;SDS011;18508;49.386;8.370;2024-03-07T08:30:20;34.30;;;19.27;;
31990;SDS011;18508;49.386;8.370;2024-03-07T08:32:57;40.28;;;19.95;;
31990;SDS011;18508;49.386;8.370;2024-03-07T08:35:41;38.03;;;18.90;;
31990;SDS011;18508;49.386;8.370;2024-03-07T08:38:18;36.83;;;18.55;;
31990;SDS011;18508;49.386;8.370;2024-03-07T08:40:54;29.92;;;17.08;;
31990;SDS011;18508;49.386;8.370;2024-03-07T08:43:28;28.97;;;16.33;;
31990;SDS011;18508;49.386;8.370;2024-03-07T08:46:01;32.65;;;16.35;;
31990;SDS011;18508;49.386;8.370;2024-03-07T08:48:50;28.45;;;15.80;;
31990;SDS011;18508;49.386;8.370;2024-03-07T08:51:20;25.40;;;15.30;;
31990;SDS011;18508;49.386;8.370;2024-03-07T08:53:55;26.92;;;14.88;;
31990;SDS011;18508;49.386;8.370;2024-03-07T08:56:30;27.98;;;15.70;;
31990;SDS011;18508;49.386;8.370;2024-03-07T08:59:08;29.50;;;16.05;;
31990;SDS011;18508;49.386;8.370;2024-03-07T09:01:51;29.70;;;14.93;;
31990;SDS011;18508;49.386;8.370;2024-03-07T09:04:31;27.73;;;14.65;;
31990;SDS011;18508;49.386;8.370;2024-03-07T09:07:06;25.90;;;14.73;;
31990;SDS011;18508;49.386;8.370;2024-03-07T09:09:45;27.20;;;15.02;;
31990;SDS011;18508;49.386;8.370;2024-03-07T09:12:19;28.50;;;15.07;;
31990;SDS011;18508;49.386;8.370;2024-03-07T09:14:59;28.05;;;15.20;;
31990;SDS011;18508;49.386;8.370;2024-03-07T09:17:51;29.95;;;15.02;;
31990;SDS011;18508;49.386;8.370;2024-03-07T09:20:29;29.17;;;15.68;;
31990;SDS011;18508;49.386;8.370;2024-03-07T09:23:04;32.13;;;17.13;;
31990;SDS011;18508;49.386;8.370;2024-03-07T09:25:36;28.90;;;15.73;;
31990;SDS011;18508;49.386;8.370;2024-03-07T09:28:19;27.98;;;15.18;;
31990;SDS011;18508;49.386;8.370;2024-03-07T09:30:56;29.13;;;16.35;;
31990;SDS011;18508;49.386;8.370;2024-03-07T09:33:30;29.83;;;15.82;;
31990;SDS011;18508;49.386;8.370;2024-03-07T09:36:15;26.10;;;15.30;;
31990;SDS011;18508;49.386;8.370;2024-03-07T09:38:54;26.83;;;15.25;;
31990;SDS011;18508;49.386;8.370;2024-03-07T09:41:31;29.42;;;15.35;;
31990;SDS011;18508;49.386;8.370;2024-03-07T09:44:06;28.45;;;16.33;;
31990;SDS011;18508;49.386;8.370;2024-03-07T09:46:49;28.08;;;15.63;;
31990;SDS011;18508;49.386;8.370;2024-03-07T09:49:25;29.75;;;17.00;;
31990;SDS011;18508;49.386;8.370;2024-03-07T09:51:57;30.05;;;15.68;;
31990;SDS011;18508;49.386;8.370;2024-03-07T09:54:40;33.00;;;18.05;;
31990;SDS011;18508;49.386;8.370;2024-03-07T09:57:17;27.90;;;15.82;;
31990;SDS011;18508;49.386;8.370;2024-03-07T09:59:58;28.98;;;15.93;;
31990;SDS011;18508;49.386;8.370;2024-03-07T10:05:05;26.17;;;14.07;;
31990;SDS011;18508;49.386;8.370;2024-03-07T10:07:42;29.95;;;16.92;;
31990;SDS011;18508;49.386;8.370;2024-03-07T10:10:24;29.67;;;17.08;;
31990;SDS011;18508;49.386;8.370;2024-03-07T10:12:57;28.65;;;15.85;;
31990;SDS011;18508;49.386;8.370;2024-03-07T10:15:41;28.85;;;16.42;;
31990;SDS011;18508;49.386;8.370;2024-03-07T10:18:30;29.42;;;16.90;;
31990;SDS011;18508;49.386;8.370;2024-03-07T10:21:03;31.80;;;17.38;;
31990;SDS011;18508;49.386;8.370;2024-03-07T10:23:46;27.20;;;14.90;;
31990;SDS011;18508;49.386;8.370;2024-03-07T10:26:27;29.15;;;16.10;;
31990;SDS011;18508;49.386;8.370;2024-03-07T10:28:59;27.92;;;15.65;;
31990;SDS011;18508;49.386;8.370;2024-03-07T10:31:35;28.13;;;16.15;;
31990;SDS011;18508;49.386;8.370;2024-03-07T10:34:18;30.92;;;16.40;;
31990;SDS011;18508;49.386;8.370;2024-03-07T10:36:51;27.95;;;16.25;;
31990;SDS011;18508;49.386;8.370;2024-03-07T10:39:38;26.23;;;15.02;;
31990;SDS011;18508;49.386;8.370;2024-03-07T10:42:11;30.63;;;16.60;;
31990;SDS011;18508;49.386;8.370;2024-03-07T10:44:47;26.38;;;15.90;;
31990;SDS011;18508;49.386;8.370;2024-03-07T10:47:17;30.20;;;17.05;;
31990;SDS011;18508;49.386;8.370;2024-03-07T10:50:07;34.63;;;16.87;;
31990;SDS011;18508;49.386;8.370;2024-03-07T10:52:47;30.65;;;16.42;;
31990;SDS011;18508;49.386;8.370;2024-03-07T10:55:27;27.95;;;16.55;;
31990;SDS011;18508;49.386;8.370;2024-03-07T10:58:08;29.27;;;17.23;;
31990;SDS011;18508;49.386;8.370;2024-03-07T11:00:43;26.45;;;15.77;;
31990;SDS011;18508;49.386;8.370;2024-03-07T11:03:14;33.17;;;17.17;;
31990;SDS011;18508;49.386;8.370;2024-03-07T11:05:48;30.80;;;16.75;;
31990;SDS011;18508;49.386;8.370;2024-03-07T11:08:20;32.28;;;16.25;;
31990;SDS011;18508;49.386;8.370;2024-03-07T11:10:54;27.80;;;15.73;;
31990;SDS011;18508;49.386;8.370;2024-03-07T11:13:25;31.23;;;18.05;;
31990;SDS011;18508;49.386;8.370;2024-03-07T11:15:56;28.45;;;15.80;;
31990;SDS011;18508;49.386;8.370;2024-03-07T11:18:27;30.85;;;16.52;;
31990;SDS011;18508;49.386;8.370;2024-03-07T11:20:56;30.67;;;17.90;;
31990;SDS011;18508;49.386;8.370;2024-03-07T11:23:29;30.17;;;16.52;;
31990;SDS011;18508;49.386;8.370;2024-03-07T11:26:08;31.70;;;18.02;;
31990;SDS011;18508;49.386;8.370;2024-03-07T11:28:41;31.48;;;16.33;;
31990;SDS011;18508;49.386;8.370;2024-03-07T11:31:13;33.40;;;17.73;;
31990;SDS011;18508;49.386;8.370;2024-03-07T11:36:41;31.08;;;17.27;;
31990;SDS011;18508;49.386;8.370;2024-03-07T11:42:20;32.90;;;17.98;;
31990;SDS011;18508;49.386;8.370;2024-03-07T11:44:54;33.38;;;18.00;;
31990;SDS011;18508;49.386;8.370;2024-03-07T11:47:35;32.00;;;17.77;;
31990;SDS011;18508;49.386;8.370;2024-03-07T11:50:08;28.25;;;17.15;;
31990;SDS011;18508;49.386;8.370;2024-03-07T11:52:39;31.17;;;17.65;;
31990;SDS011;18508;49.386;8.370;2024-03-07T11:55:11;32.33;;;17.60;;
31990;SDS011;18508;49.386;8.370;2024-03-07T11:57:44;28.60;;;17.17;;
31990;SDS011;18508;49.386;8.370;2024-03-07T12:00:17;33.38;;;17.95;;
31990;SDS011;18508;49.386;8.370;2024-03-07T12:02:53;33.45;;;18.15;;
31990;SDS011;18508;49.386;8.370;2024-03-07T12:05:23;32.60;;;18.23;;
31990;SDS011;18508;49.386;8.370;2024-03-07T12:07:55;39.78;;;18.85;;
31990;SDS011;18508;49.386;8.370;2024-03-07T12:10:25;30.88;;;17.67;;
31990;SDS011;18508;49.386;8.370;2024-03-07T12:12:56;34.85;;;19.67;;
31990;SDS011;18508;49.386;8.370;2024-03-07T12:17:57;46.00;;;20.25;;
31990;SDS011;18508;49.386;8.370;2024-03-07T12:20:28;35.42;;;19.30;;
31990;SDS011;18508;49.386;8.370;2024-03-07T12:23:01;35.58;;;19.45;;
31990;SDS011;18508;49.386;8.370;2024-03-07T12:25:32;34.15;;;19.85;;
31990;SDS011;18508;49.386;8.370;2024-03-07T12:28:03;34.10;;;18.85;;
31990;SDS011;18508;49.386;8.370;2024-03-07T12:30:47;32.90;;;17.88;;
31990;SDS011;18508;49.386;8.370;2024-03-07T12:33:22;36.38;;;19.10;;
31990;SDS011;18508;49.386;8.370;2024-03-07T12:35:53;36.95;;;18.67;;
31990;SDS011;18508;49.386;8.370;2024-03-07T12:38:34;34.40;;;17.95;;
31990;SDS011;18508;49.386;8.370;2024-03-07T12:41:09;35.33;;;18.17;;
31990;SDS011;18508;49.386;8.370;2024-03-07T12:43:45;38.63;;;19.52;;
31990;SDS011;18508;49.386;8.370;2024-03-07T12:46:16;39.05;;;19.10;;
31990;SDS011;18508;49.386;8.370;2024-03-07T12:48:46;36.58;;;18.55;;
31990;SDS011;18508;49.386;8.370;2024-03-07T12:51:17;32.08;;;19.65;;
31990;SDS011;18508;49.386;8.370;2024-03-07T12:53:49;30.63;;;18.33;;
31990;SDS011;18508;49.386;8.370;2024-03-07T12:56:18;34.13;;;18.67;;
31990;SDS011;18508;49.386;8.370;2024-03-07T12:58:49;35.50;;;18.83;;
31990;SDS011;18508;49.386;8.370;2024-03-07T13:01:18;36.42;;;18.50;;
31990;SDS011;18508;49.386;8.370;2024-03-07T13:03:48;34.25;;;18.50;;
31990;SDS011;18508;49.386;8.370;2024-03-07T13:06:18;30.30;;;18.10;;
31990;SDS011;18508;49.386;8.370;2024-03-07T13:08:53;32.42;;;18.27;;
31990;SDS011;18508;49.386;8.370;2024-03-07T13:11:23;33.05;;;18.35;;
31990;SDS011;18508;49.386;8.370;2024-03-07T13:13:59;29.80;;;18.85;;
31990;SDS011;18508;49.386;8.370;2024-03-07T13:16:28;32.70;;;18.13;;
31990;SDS011;18508;49.386;8.370;2024-03-07T13:18:59;30.63;;;18.02;;
31990;SDS011;18508;49.386;8.370;2024-03-07T13:21:31;34.78;;;18.17;;
31990;SDS011;18508;49.386;8.370;2024-03-07T13:24:02;33.28;;;18.83;;
31990;SDS011;18508;49.386;8.370;2024-03-07T13:26:33;30.02;;;17.23;;
31990;SDS011;18508;49.386;8.370;2024-03-07T13:29:05;32.17;;;18.48;;
31990;SDS011;18508;49.386;8.370;2024-03-07T13:31:37;31.48;;;17.63;;
31990;SDS011;18508;49.386;8.370;2024-03-07T13:34:09;28.67;;;16.00;;
31990;SDS011;18508;49.386;8.370;2024-03-07T13:36:41;25.40;;;15.30;;
31990;SDS011;18508;49.386;8.370;2024-03-07T13:39:11;25.38;;;14.82;;
31990;SDS011;18508;49.386;8.370;2024-03-07T13:41:43;30.50;;;16.20;;
31990;SDS011;18508;49.386;8.370;2024-03-07T13:44:17;25.42;;;15.77;;
31990;SDS011;18508;49.386;8.370;2024-03-07T13:46:48;25.80;;;16.10;;
31990;SDS011;18508;49.386;8.370;2024-03-07T13:49:20;27.60;;;15.07;;
31990;SDS011;18508;49.386;8.370;2024-03-07T13:51:51;24.52;;;14.98;;
31990;SDS011;18508;49.386;8.370;2024-03-07T13:54:32;27.15;;;16.17;;
31990;SDS011;18508;49.386;8.370;2024-03-07T13:57:11;27.95;;;15.18;;
31990;SDS011;18508;49.386;8.370;2024-03-07T14:00:02;25.27;;;14.93;;
31990;SDS011;18508;49.386;8.370;2024-03-07T14:02:53;27.27;;;16.23;;
31990;SDS011;18508;49.386;8.370;2024-03-07T14:05:54;27.45;;;15.95;;
31990;SDS011;18508;49.386;8.370;2024-03-07T14:11:51;23.60;;;14.43;;
31990;SDS011;18508;49.386;8.370;2024-03-07T14:14:47;24.77;;;14.20;;
31990;SDS011;18508;49.386;8.370;2024-03-07T14:24:35;22.98;;;12.98;;
31990;SDS011;18508;49.386;8.370;2024-03-07T14:27:36;24.60;;;14.63;;
31990;SDS011;18508;49.386;8.370;2024-03-07T14:32:56;26.48;;;14.82;;
31990;SDS011;18508;49.386;8.370;2024-03-07T14:35:35;30.98;;;14.82;;
31990;SDS011;18508;49.386;8.370;2024-03-07T14:38:29;23.73;;;14.05;;
31990;SDS011;18508;49.386;8.370;2024-03-07T14:41:12;22.33;;;13.73;;
31990;SDS011;18508;49.386;8.370;2024-03-07T14:43:43;24.50;;;14.82;;
31990;SDS011;18508;49.386;8.370;2024-03-07T14:46:15;24.13;;;14.20;;
31990;SDS011;18508;49.386;8.370;2024-03-07T14:48:45;23.95;;;13.95;;
31990;SDS011;18508;49.386;8.370;2024-03-07T14:51:17;24.23;;;14.10;;
31990;SDS011;18508;49.386;8.370;2024-03-07T14:53:47;25.38;;;15.48;;
31990;SDS011;18508;49.386;8.370;2024-03-07T14:56:16;27.88;;;16.60;;
31990;SDS011;18508;49.386;8.370;2024-03-07T14:58:47;23.55;;;13.55;;
31990;SDS011;18508;49.386;8.370;2024-03-07T15:01:15;28.17;;;14.85;;
31990;SDS011;18508;49.386;8.370;2024-03-07T15:03:48;25.38;;;14.73;;
31990;SDS011;18508;49.386;8.370;2024-03-07T15:06:20;25.77;;;15.15;;
31990;SDS011;18508;49.386;8.370;2024-03-07T15:08:49;24.98;;;15.27;;
31990;SDS011;18508;49.386;8.370;2024-03-07T15:11:22;26.98;;;15.18;;
31990;SDS011;18508;49.386;8.370;2024-03-07T15:13:58;25.73;;;14.40;;
31990;SDS011;18508;49.386;8.370;2024-03-07T15:16:35;22.75;;;13.07;;
31990;SDS011;18508;49.386;8.370;2024-03-07T15:19:08;31.25;;;15.75;;
31990;SDS011;18508;49.386;8.370;2024-03-07T15:21:38;24.35;;;14.55;;
31990;SDS011;18508;49.386;8.370;2024-03-07T15:24:07;24.70;;;14.60;;
31990;SDS011;18508;49.386;8.370;2024-03-07T15:26:35;26.15;;;15.80;;
31990;SDS011;18508;49.386;8.370;2024-03-07T15:29:05;27.23;;;15.38;;
31990;SDS011;18508;49.386;8.370;2024-03-07T15:31:34;24.80;;;14.02;;
31990;SDS011;18508;49.386;8.370;2024-03-07T15:34:03;26.70;;;13.98;;
31990;SDS011;18508;49.386;8.370;2024-03-07T15:36:33;24.83;;;13.52;;
31990;SDS011;18508;49.386;8.370;2024-03-07T15:39:08;26.58;;;15.00;;